createdAt,value
2023-03-26T00:00:29.054Z,16.33
2023-03-26T00:01:33.908Z,21.17
2023-03-26T00:02:35.752Z,14.80
2023-03-26T00:03:39.167Z,19.98
2023-03-26T00:04:42.661Z,15.00
2023-03-26T00:05:45.897Z,24.95
2023-03-26T00:06:49.023Z,14.45
2023-03-26T00:07:51.735Z,19.73
2023-03-26T00:08:53.641Z,13.77
2023-03-26T00:09:55.957Z,23.70
2023-03-26T00:11:59.199Z,14.30
2023-03-26T00:13:00.823Z,10.10
2023-03-26T00:14:02.730Z,21.55
2023-03-26T00:15:04.635Z,28.73
2023-03-26T00:16:06.546Z,20.70
2023-03-26T00:17:08.485Z,14.50
2023-03-26T00:18:10.226Z,17.63
2023-03-26T00:19:12.575Z,26.83
2023-03-26T00:20:14.750Z,11.23
2023-03-26T00:21:17.569Z,17.20
2023-03-26T00:22:19.276Z,14.38
2023-03-26T00:23:20.938Z,10.52
2023-03-26T00:24:29.401Z,27.23
2023-03-26T00:25:32.057Z,23.92
2023-03-26T00:26:34.598Z,24.33
2023-03-26T00:27:36.156Z,8.15
2023-03-26T00:28:38.332Z,20.88
2023-03-26T00:29:40.015Z,12.55
2023-03-26T00:30:41.907Z,18.50
2023-03-26T00:31:46.607Z,25.33
2023-03-26T00:32:53.632Z,23.88
2023-03-26T00:33:55.874Z,12.70
2023-03-26T00:34:57.734Z,15.48
2023-03-26T00:36:03.248Z,16.10
2023-03-26T00:37:06.029Z,20.55
2023-03-26T00:38:07.811Z,26.30
2023-03-26T00:39:10.085Z,24.15
2023-03-26T00:40:12.022Z,17.38
2023-03-26T00:41:18.094Z,27.65
2023-03-26T00:42:20.041Z,14.13
2023-03-26T00:43:22.769Z,11.85
2023-03-26T00:44:24.291Z,23.13
2023-03-26T00:45:25.840Z,15.00
2023-03-26T00:46:28.758Z,18.70
2023-03-26T00:47:30.948Z,12.68
2023-03-26T00:48:44.522Z,20.30
2023-03-26T00:49:47.154Z,14.82
2023-03-26T00:50:49.360Z,25.23
2023-03-26T00:51:51.344Z,12.77
2023-03-26T00:52:55.852Z,14.80
2023-03-26T00:53:58.069Z,22.40
2023-03-26T00:54:59.753Z,33.60
2023-03-26T00:56:01.289Z,15.27
2023-03-26T00:57:02.878Z,13.18
2023-03-26T00:58:04.592Z,14.93
2023-03-26T00:59:06.433Z,40.88
2023-03-26T01:00:15.287Z,22.67
2023-03-26T01:01:21.173Z,21.02
2023-03-26T01:02:23.414Z,17.73
2023-03-26T01:03:29.251Z,27.98
2023-03-26T01:04:34.786Z,12.00
2023-03-26T01:05:43.004Z,22.90
2023-03-26T01:06:45.223Z,30.45
2023-03-26T01:07:47.539Z,29.15
2023-03-26T01:08:50.814Z,19.33
2023-03-26T01:09:52.335Z,28.58
2023-03-26T01:11:02.837Z,22.17
2023-03-26T01:12:06.731Z,23.08
2023-03-26T01:13:08.537Z,26.23
2023-03-26T01:14:11.445Z,29.23
2023-03-26T01:15:13.796Z,19.45
2023-03-26T01:16:20.578Z,17.63
2023-03-26T01:17:23.054Z,18.30
2023-03-26T01:18:27.577Z,27.65
2023-03-26T01:19:29.745Z,15.82
2023-03-26T01:20:34.051Z,28.75
2023-03-26T01:21:36.005Z,21.42
2023-03-26T01:22:38.905Z,17.73
2023-03-26T01:23:49.106Z,14.93
2023-03-26T01:24:56.593Z,18.13
2023-03-26T01:26:06.036Z,22.73
2023-03-26T01:27:10.381Z,9.85
2023-03-26T01:28:12.665Z,34.65
2023-03-26T01:29:20.809Z,17.48
2023-03-26T01:30:27.190Z,16.77
2023-03-26T01:31:31.387Z,22.65
2023-03-26T01:32:39.097Z,24.40
2023-03-26T01:33:52.375Z,15.68
2023-03-26T01:35:00.463Z,18.35
2023-03-26T01:36:23.499Z,24.85
2023-03-26T01:37:30.510Z,14.27
2023-03-26T01:38:38.112Z,17.92
2023-03-26T01:39:49.522Z,18.55
2023-03-26T01:41:05.205Z,17.17
2023-03-26T01:42:09.654Z,30.52
2023-03-26T01:43:11.276Z,21.98
2023-03-26T01:44:21.628Z,21.80
2023-03-26T01:45:26.209Z,20.50
2023-03-26T01:46:28.780Z,17.15
2023-03-26T01:47:31.141Z,13.52
2023-03-26T01:48:37.422Z,9.38
2023-03-26T01:49:39.002Z,17.10
2023-03-26T01:50:41.183Z,16.58
2023-03-26T01:51:42.877Z,24.02
2023-03-26T01:52:44.955Z,14.38
2023-03-26T01:53:48.467Z,18.77
2023-03-26T01:54:50.276Z,22.77
2023-03-26T01:56:13.425Z,29.52
2023-03-26T01:57:20.981Z,21.90
2023-03-26T01:58:27.895Z,19.33
2023-03-26T01:59:29.440Z,22.08
2023-03-26T02:00:31.037Z,18.35
2023-03-26T02:01:44.738Z,23.63
2023-03-26T02:03:18.007Z,17.65
2023-03-26T02:04:19.943Z,18.88
2023-03-26T02:05:27.147Z,17.23
2023-03-26T02:06:37.550Z,16.27
2023-03-26T02:07:44.679Z,20.63
2023-03-26T02:08:48.449Z,18.27
2023-03-26T02:10:00.685Z,13.70
2023-03-26T02:11:11.492Z,25.15
2023-03-26T02:12:14.645Z,20.80
2023-03-26T02:13:16.239Z,16.88
2023-03-26T02:14:17.987Z,16.55
2023-03-26T02:15:19.620Z,25.85
2023-03-26T02:16:21.233Z,12.32
2023-03-26T02:17:24.503Z,17.05
2023-03-26T02:18:36.132Z,16.02
2023-03-26T02:19:42.064Z,19.35
2023-03-26T02:20:43.711Z,21.30
2023-03-26T02:21:47.019Z,20.33
2023-03-26T02:22:49.128Z,29.98
2023-03-26T02:23:57.861Z,21.02
2023-03-26T02:24:59.721Z,18.70
2023-03-26T02:26:03.095Z,12.57
2023-03-26T02:27:07.710Z,13.85
2023-03-26T02:28:09.271Z,19.73
2023-03-26T02:29:11.284Z,16.52
2023-03-26T02:30:15.446Z,15.20
2023-03-26T02:31:19.255Z,20.20
2023-03-26T02:32:21.006Z,18.10
2023-03-26T02:33:22.517Z,21.00
2023-03-26T02:34:24.233Z,18.50
2023-03-26T02:35:25.807Z,18.92
2023-03-26T02:36:28.046Z,16.20
2023-03-26T02:37:30.413Z,23.27
2023-03-26T02:38:35.500Z,22.27
2023-03-26T02:39:37.072Z,13.30
2023-03-26T02:40:40.165Z,19.52
2023-03-26T02:41:41.766Z,12.63
2023-03-26T02:42:43.328Z,20.95
2023-03-26T02:43:44.857Z,16.52
2023-03-26T02:44:46.432Z,10.25
2023-03-26T02:45:48.357Z,17.25
2023-03-26T02:46:49.917Z,16.30
2023-03-26T02:47:51.428Z,22.20
2023-03-26T02:48:53.043Z,18.52
2023-03-26T02:49:54.691Z,22.48
2023-03-26T02:50:56.214Z,19.42
2023-03-26T02:51:57.888Z,27.92
2023-03-26T02:52:59.397Z,12.80
2023-03-26T02:54:01.688Z,13.35
2023-03-26T02:55:03.846Z,17.40
2023-03-26T02:56:05.662Z,20.90
2023-03-26T02:57:07.273Z,24.63
2023-03-26T02:58:08.904Z,15.18
2023-03-26T02:59:10.800Z,11.27
2023-03-26T03:00:15.539Z,19.27
2023-03-26T03:01:18.485Z,17.75
2023-03-26T03:02:20.273Z,19.38
2023-03-26T03:03:24.288Z,18.08
2023-03-26T03:04:25.898Z,17.98
2023-03-26T03:05:28.862Z,8.18
2023-03-26T03:06:31.030Z,13.43
2023-03-26T03:07:32.691Z,13.95
2023-03-26T03:08:34.260Z,24.15
2023-03-26T03:09:35.833Z,19.80
2023-03-26T03:10:38.006Z,13.63
2023-03-26T03:11:40.328Z,13.30
2023-03-26T03:12:42.215Z,24.02
2023-03-26T03:13:44.383Z,21.67
2023-03-26T03:14:45.927Z,17.05
2023-03-26T03:15:47.784Z,13.23
2023-03-26T03:16:49.653Z,24.55
2023-03-26T03:17:51.582Z,13.02
2023-03-26T03:18:58.168Z,15.52
2023-03-26T03:20:00.003Z,15.48
2023-03-26T03:21:02.891Z,21.38
2023-03-26T03:22:04.347Z,17.75
2023-03-26T03:23:06.104Z,15.95
2023-03-26T03:24:08.020Z,32.28
2023-03-26T03:25:14.278Z,19.70
2023-03-26T03:26:17.422Z,18.27
2023-03-26T03:27:22.331Z,18.70
2023-03-26T03:28:24.524Z,14.88
2023-03-26T03:29:26.293Z,15.77
2023-03-26T03:30:27.861Z,23.02
2023-03-26T03:31:29.509Z,14.85
2023-03-26T03:32:31.060Z,20.20
2023-03-26T03:33:32.625Z,20.50
2023-03-26T03:34:34.169Z,8.95
2023-03-26T03:35:35.855Z,15.00
2023-03-26T03:36:38.568Z,18.42
2023-03-26T03:37:40.509Z,10.15
2023-03-26T03:38:42.096Z,12.18
2023-03-26T03:39:44.074Z,13.65
2023-03-26T03:40:45.868Z,23.08
2023-03-26T03:41:47.391Z,11.18
2023-03-26T03:42:49.645Z,15.93
2023-03-26T03:43:51.955Z,17.70
2023-03-26T03:44:53.436Z,13.27
2023-03-26T03:45:55.029Z,16.98
2023-03-26T03:46:57.029Z,16.10
2023-03-26T03:47:58.700Z,13.65
2023-03-26T03:49:00.337Z,16.75
2023-03-26T03:50:02.007Z,9.05
2023-03-26T03:51:03.666Z,10.30
2023-03-26T03:52:05.874Z,13.15
2023-03-26T03:53:07.323Z,18.33
2023-03-26T03:54:08.763Z,20.38
2023-03-26T03:55:10.640Z,15.43
2023-03-26T03:56:14.810Z,16.73
2023-03-26T03:57:18.883Z,24.00
2023-03-26T03:58:22.396Z,10.75
2023-03-26T03:59:24.018Z,17.27
2023-03-26T04:00:25.621Z,9.40
2023-03-26T04:01:30.723Z,17.17
2023-03-26T04:02:35.081Z,15.07
2023-03-26T04:03:39.066Z,13.52
2023-03-26T04:04:41.144Z,18.40
2023-03-26T04:05:49.850Z,13.43
2023-03-26T04:06:52.222Z,39.00
2023-03-26T04:07:53.670Z,15.85
2023-03-26T04:08:55.290Z,13.57
2023-03-26T04:09:57.255Z,17.73
2023-03-26T04:10:58.874Z,16.38
2023-03-26T04:12:00.487Z,10.52
2023-03-26T04:13:01.967Z,16.05
2023-03-26T04:14:04.068Z,13.50
2023-03-26T04:15:05.993Z,7.63
2023-03-26T04:16:07.764Z,17.40
2023-03-26T04:17:09.387Z,16.13
2023-03-26T04:18:11.839Z,23.27
2023-03-26T04:19:14.345Z,13.95
2023-03-26T04:20:16.164Z,8.27
2023-03-26T04:21:17.825Z,10.88
2023-03-26T04:22:19.740Z,19.85
2023-03-26T04:23:22.309Z,15.10
2023-03-26T04:24:24.568Z,19.13
2023-03-26T04:25:30.502Z,13.68
2023-03-26T04:26:32.059Z,18.80
2023-03-26T04:27:36.809Z,20.00
2023-03-26T04:28:47.398Z,12.05
2023-03-26T04:29:50.028Z,23.17
2023-03-26T04:30:53.733Z,33.30
2023-03-26T04:31:58.741Z,9.32
2023-03-26T04:33:04.183Z,10.93
2023-03-26T04:34:07.658Z,13.18
2023-03-26T04:35:11.649Z,14.65
2023-03-26T04:36:13.998Z,15.65
2023-03-26T04:37:35.838Z,15.23
2023-03-26T04:38:40.391Z,15.02
2023-03-26T04:39:41.848Z,13.60
2023-03-26T04:40:47.502Z,16.00
2023-03-26T04:41:49.180Z,15.18
2023-03-26T04:42:51.129Z,10.60
2023-03-26T04:43:53.387Z,11.77
2023-03-26T04:44:54.882Z,18.95
2023-03-26T04:45:56.624Z,12.63
2023-03-26T04:46:58.377Z,16.02
2023-03-26T04:48:00.226Z,12.95
2023-03-26T04:49:02.160Z,10.23
2023-03-26T04:50:07.505Z,12.23
2023-03-26T04:51:10.315Z,19.58
2023-03-26T04:52:12.781Z,15.63
2023-03-26T04:53:16.061Z,15.10
2023-03-26T04:54:20.170Z,13.13
2023-03-26T04:55:24.968Z,21.70
2023-03-26T04:56:47.455Z,11.68
2023-03-26T04:57:53.144Z,12.43
2023-03-26T04:58:57.751Z,10.43
2023-03-26T04:59:59.184Z,8.82
2023-03-26T05:01:10.210Z,10.05
2023-03-26T05:02:13.020Z,6.00
2023-03-26T05:03:14.619Z,8.85
2023-03-26T05:04:16.296Z,10.95
2023-03-26T05:05:18.291Z,17.70
2023-03-26T05:06:19.999Z,10.50
2023-03-26T05:07:23.967Z,9.38
2023-03-26T05:08:26.906Z,22.63
2023-03-26T05:09:28.794Z,17.70
2023-03-26T05:10:30.311Z,12.90
2023-03-26T05:11:31.748Z,10.57
2023-03-26T05:12:33.375Z,12.52
2023-03-26T05:13:34.912Z,11.73
2023-03-26T05:14:36.422Z,11.20
2023-03-26T05:15:38.034Z,15.27
2023-03-26T05:16:39.629Z,10.82
2023-03-26T05:17:42.700Z,5.03
2023-03-26T05:18:44.252Z,15.40
2023-03-26T05:19:47.169Z,9.27
2023-03-26T05:20:48.680Z,15.88
2023-03-26T05:21:50.457Z,8.95
2023-03-26T05:22:52.401Z,13.70
2023-03-26T05:23:53.888Z,8.05
2023-03-26T05:24:56.316Z,9.15
2023-03-26T05:25:57.798Z,6.20
2023-03-26T05:26:59.362Z,8.63
2023-03-26T05:28:01.432Z,10.02
2023-03-26T05:29:03.833Z,9.50
2023-03-26T05:30:06.077Z,8.75
2023-03-26T05:31:08.259Z,13.55
2023-03-26T05:32:10.364Z,14.10
2023-03-26T05:33:11.902Z,12.52
2023-03-26T05:34:14.168Z,12.27
2023-03-26T05:35:17.285Z,11.38
2023-03-26T05:36:19.279Z,11.95
2023-03-26T05:37:24.553Z,7.00
2023-03-26T05:38:27.523Z,7.03
2023-03-26T05:39:29.866Z,19.63
2023-03-26T05:40:31.519Z,15.00
2023-03-26T05:41:32.971Z,8.30
2023-03-26T05:42:34.484Z,9.45
2023-03-26T05:43:36.458Z,12.52
2023-03-26T05:44:37.929Z,16.95
2023-03-26T05:45:39.554Z,14.43
2023-03-26T05:46:41.215Z,8.10
2023-03-26T05:47:42.832Z,13.52
2023-03-26T05:48:44.444Z,14.23
2023-03-26T05:49:46.915Z,10.40
2023-03-26T05:50:49.466Z,11.68
2023-03-26T05:51:52.431Z,6.10
2023-03-26T05:52:55.355Z,14.90
2023-03-26T05:53:56.851Z,8.25
2023-03-26T05:54:58.629Z,10.90
2023-03-26T05:56:00.906Z,9.63
2023-03-26T05:57:02.458Z,4.85
2023-03-26T05:58:03.891Z,12.07
2023-03-26T05:59:05.525Z,6.22
2023-03-26T06:00:09.001Z,6.30
2023-03-26T06:01:16.973Z,12.38
2023-03-26T06:02:18.553Z,9.98
2023-03-26T06:03:20.305Z,7.75
2023-03-26T06:04:22.104Z,9.13
2023-03-26T06:05:23.700Z,8.13
2023-03-26T06:06:26.087Z,9.32
2023-03-26T06:07:28.173Z,8.98
2023-03-26T06:08:30.223Z,5.68
2023-03-26T06:09:31.686Z,9.05
2023-03-26T06:10:33.374Z,6.45
2023-03-26T06:11:34.977Z,5.60
2023-03-26T06:12:37.097Z,19.02
2023-03-26T06:13:39.228Z,9.40
2023-03-26T06:14:43.033Z,12.13
2023-03-26T06:15:44.595Z,6.70
2023-03-26T06:16:46.365Z,8.85
2023-03-26T06:17:48.110Z,10.93
2023-03-26T06:18:56.215Z,7.65
2023-03-26T06:19:58.652Z,8.10
2023-03-26T06:21:00.330Z,10.35
2023-03-26T06:22:01.890Z,16.30
2023-03-26T06:23:03.496Z,4.90
2023-03-26T06:24:05.321Z,8.07
2023-03-26T06:25:06.970Z,7.63
2023-03-26T06:26:08.468Z,9.85
2023-03-26T06:27:10.149Z,11.65
2023-03-26T06:28:12.155Z,9.85
2023-03-26T06:29:14.650Z,12.30
2023-03-26T06:30:16.187Z,10.88
2023-03-26T06:31:19.354Z,15.05
2023-03-26T06:32:21.292Z,11.55
2023-03-26T06:33:24.489Z,7.53
2023-03-26T06:34:26.704Z,11.35
2023-03-26T06:35:29.975Z,11.25
2023-03-26T06:36:31.432Z,9.77
2023-03-26T06:37:33.016Z,11.35
2023-03-26T06:38:34.696Z,8.05
2023-03-26T06:39:36.228Z,12.13
2023-03-26T06:40:37.780Z,7.82
2023-03-26T06:41:39.288Z,10.32
2023-03-26T06:43:07.933Z,11.10
2023-03-26T06:44:02.529Z,11.35
2023-03-26T06:45:04.272Z,15.13
2023-03-26T06:46:06.029Z,8.90
2023-03-26T06:47:07.536Z,13.15
2023-03-26T06:48:09.122Z,15.45
2023-03-26T06:49:10.749Z,11.55
2023-03-26T06:50:12.337Z,14.63
2023-03-26T06:51:13.974Z,6.18
2023-03-26T06:52:15.463Z,17.23
2023-03-26T06:53:16.932Z,16.90
2023-03-26T06:54:18.754Z,8.45
2023-03-26T06:55:20.534Z,14.98
2023-03-26T06:56:22.014Z,18.30
2023-03-26T06:57:23.498Z,10.27
2023-03-26T06:58:25.068Z,11.90
2023-03-26T06:59:26.773Z,12.15
2023-03-26T07:00:28.490Z,15.50
2023-03-26T07:01:30.460Z,12.35
2023-03-26T07:02:32.034Z,5.57
2023-03-26T07:03:33.741Z,8.63
2023-03-26T07:04:35.418Z,13.77
2023-03-26T07:05:37.401Z,16.60
2023-03-26T07:06:38.906Z,10.50
2023-03-26T07:07:46.352Z,4.82
2023-03-26T07:08:48.341Z,26.05
2023-03-26T07:09:50.321Z,13.88
2023-03-26T07:10:52.085Z,11.75
2023-03-26T07:11:53.942Z,13.52
2023-03-26T07:12:55.577Z,14.77
2023-03-26T07:13:57.215Z,17.23
2023-03-26T07:15:00.341Z,12.63
2023-03-26T07:16:02.088Z,13.02
2023-03-26T07:17:03.688Z,11.27
2023-03-26T07:18:05.976Z,19.95
2023-03-26T07:19:07.766Z,10.20
2023-03-26T07:20:09.598Z,13.65
2023-03-26T07:21:12.128Z,16.63
2023-03-26T07:22:15.786Z,12.40
2023-03-26T07:23:20.517Z,14.05
2023-03-26T07:24:22.201Z,8.80
2023-03-26T07:25:23.902Z,13.85
2023-03-26T07:26:35.483Z,14.27
2023-03-26T07:27:44.183Z,14.10
2023-03-26T07:29:04.877Z,11.80
2023-03-26T07:30:30.499Z,12.25
2023-03-26T07:31:50.925Z,17.17
2023-03-26T07:32:58.377Z,22.15
2023-03-26T07:34:05.985Z,23.55
2023-03-26T07:35:27.947Z,12.63
2023-03-26T07:36:29.594Z,16.95
2023-03-26T07:37:31.065Z,12.07
2023-03-26T07:38:33.166Z,18.27
2023-03-26T07:39:41.164Z,18.25
2023-03-26T07:41:01.818Z,9.30
2023-03-26T07:42:09.851Z,15.45
2023-03-26T07:43:11.537Z,14.23
2023-03-26T07:44:27.917Z,12.45
2023-03-26T07:45:39.819Z,19.27
2023-03-26T07:46:41.617Z,19.45
2023-03-26T07:47:45.110Z,21.98
2023-03-26T07:48:50.089Z,11.40
2023-03-26T07:49:55.555Z,17.50
2023-03-26T07:50:57.576Z,10.02
2023-03-26T07:51:59.378Z,9.80
2023-03-26T07:53:01.420Z,16.67
2023-03-26T07:54:04.304Z,13.90
2023-03-26T07:55:06.348Z,14.82
2023-03-26T07:56:08.153Z,22.35
2023-03-26T07:57:16.045Z,17.52
2023-03-26T07:58:35.907Z,25.50
2023-03-26T07:59:40.386Z,16.48
2023-03-26T08:00:48.039Z,19.85
2023-03-26T08:01:49.962Z,19.13
2023-03-26T08:02:51.858Z,15.65
2023-03-26T08:03:54.010Z,14.20
2023-03-26T08:05:10.700Z,11.05
2023-03-26T08:06:15.160Z,15.85
2023-03-26T08:07:28.638Z,21.50
2023-03-26T08:08:54.353Z,13.35
2023-03-26T08:09:55.987Z,28.65
2023-03-26T08:11:00.694Z,21.33
2023-03-26T08:12:05.020Z,19.65
2023-03-26T08:13:20.411Z,11.93
2023-03-26T08:14:37.121Z,18.30
2023-03-26T08:15:59.106Z,9.27
2023-03-26T08:17:03.801Z,9.80
2023-03-26T08:18:14.351Z,6.55
2023-03-26T08:19:31.046Z,4.60
2023-03-26T08:20:32.657Z,10.98
2023-03-26T08:21:39.697Z,3.45
2023-03-26T08:22:42.751Z,8.68
2023-03-26T08:24:03.591Z,6.15
2023-03-26T08:25:17.728Z,6.25
2023-03-26T08:26:29.598Z,3.28
2023-03-26T08:27:37.795Z,5.68
2023-03-26T08:29:05.718Z,5.38
2023-03-26T08:30:07.586Z,4.95
2023-03-26T08:31:11.309Z,8.27
2023-03-26T08:32:14.359Z,5.22
2023-03-26T08:33:18.738Z,5.28
2023-03-26T08:34:20.405Z,3.88
2023-03-26T08:35:22.281Z,8.40
2023-03-26T08:36:23.835Z,2.63
2023-03-26T08:37:27.238Z,3.70
2023-03-26T08:38:28.942Z,4.68
2023-03-26T08:39:30.693Z,6.05
2023-03-26T08:40:58.416Z,2.40
2023-03-26T08:42:15.446Z,1.87
2023-03-26T08:43:31.536Z,2.20
2023-03-26T08:44:40.822Z,2.60
2023-03-26T08:45:59.127Z,3.67
2023-03-26T08:47:13.266Z,2.37
2023-03-26T08:48:27.197Z,2.20
2023-03-26T08:49:43.857Z,3.53
2023-03-26T08:50:45.354Z,3.73
2023-03-26T08:52:06.155Z,4.10
2023-03-26T08:53:08.633Z,19.53
2023-03-26T08:54:22.368Z,4.10
2023-03-26T08:55:42.827Z,7.63
2023-03-26T08:56:54.221Z,2.57
2023-03-26T08:58:14.691Z,1.30
2023-03-26T08:59:16.558Z,1.30
2023-03-26T09:00:40.475Z,2.57
2023-03-26T09:02:00.915Z,5.17
2023-03-26T09:03:16.566Z,2.97
2023-03-26T09:04:27.994Z,2.10
2023-03-26T09:05:32.618Z,2.83
2023-03-26T09:06:40.964Z,4.20
2023-03-26T09:07:45.717Z,3.40
2023-03-26T09:08:56.490Z,2.90
2023-03-26T09:09:58.432Z,5.17
2023-03-26T09:11:12.182Z,1.60
2023-03-26T09:12:26.146Z,2.43
2023-03-26T09:13:37.046Z,2.37
2023-03-26T09:14:51.729Z,1.77
2023-03-26T09:16:12.554Z,4.00
2023-03-26T09:17:15.212Z,4.03
2023-03-26T09:18:25.852Z,4.53
2023-03-26T09:19:42.549Z,4.37
2023-03-26T09:20:53.930Z,5.73
2023-03-26T09:22:14.563Z,1.03
2023-03-26T09:23:31.100Z,2.10
2023-03-26T09:24:32.644Z,1.63
2023-03-26T09:25:41.713Z,2.00
2023-03-26T09:27:06.329Z,0.90
2023-03-26T09:28:26.555Z,2.70
2023-03-26T09:29:46.989Z,7.60
2023-03-26T09:30:55.216Z,1.70
2023-03-26T09:32:12.050Z,3.13
2023-03-26T09:33:42.878Z,2.30
2023-03-26T09:34:47.234Z,1.90
2023-03-26T09:36:07.592Z,3.33
2023-03-26T09:37:09.234Z,2.30
2023-03-26T09:38:29.652Z,2.67
2023-03-26T09:39:38.954Z,2.57
2023-03-26T09:40:49.204Z,0.80
2023-03-26T09:42:11.799Z,1.90
2023-03-26T09:43:27.144Z,3.40
2023-03-26T09:44:37.953Z,3.00
2023-03-26T09:45:52.697Z,4.30
2023-03-26T09:47:00.815Z,0.77
2023-03-26T09:48:14.628Z,3.30
2023-03-26T09:49:35.146Z,3.40
2023-03-26T09:50:36.713Z,1.53
2023-03-26T09:51:57.623Z,4.53
2023-03-26T09:53:02.258Z,6.30
2023-03-26T09:54:03.909Z,1.70
2023-03-26T09:55:20.667Z,1.83
2023-03-26T09:56:26.251Z,3.80
2023-03-26T09:57:30.558Z,1.70
2023-03-26T09:58:50.759Z,2.30
2023-03-26T10:00:04.867Z,1.57
2023-03-26T10:01:25.429Z,3.03
2023-03-26T10:02:45.647Z,1.17
2023-03-26T10:03:49.345Z,1.10
2023-03-26T10:04:50.962Z,1.43
2023-03-26T10:06:11.940Z,1.53
2023-03-26T10:07:19.584Z,4.00
2023-03-26T10:08:41.548Z,1.17
2023-03-26T10:09:53.391Z,2.60
2023-03-26T10:10:59.643Z,3.70
2023-03-26T10:12:24.368Z,2.40
2023-03-26T10:13:26.184Z,1.63
2023-03-26T10:14:32.854Z,3.30
2023-03-26T10:15:41.367Z,1.37
2023-03-26T10:16:43.243Z,4.20
2023-03-26T10:17:50.912Z,2.87
2023-03-26T10:18:56.449Z,1.50
2023-03-26T10:20:09.469Z,1.90
2023-03-26T10:21:28.036Z,1.47
2023-03-26T10:22:59.489Z,5.87
2023-03-26T10:24:07.045Z,3.17
2023-03-26T10:25:20.770Z,1.33
2023-03-26T10:26:22.264Z,1.80
2023-03-26T10:27:32.906Z,3.80
2023-03-26T10:28:53.545Z,3.97
2023-03-26T10:30:08.417Z,1.27
2023-03-26T10:31:29.208Z,0.80
2023-03-26T10:32:33.811Z,2.70
2023-03-26T10:33:40.623Z,1.63
2023-03-26T10:34:42.188Z,3.37
2023-03-26T10:36:02.494Z,1.70
2023-03-26T10:37:04.465Z,1.00
2023-03-26T10:38:26.373Z,2.40
2023-03-26T10:39:44.472Z,2.47
2023-03-26T10:41:04.687Z,3.47
2023-03-26T10:42:24.979Z,0.97
2023-03-26T10:44:05.280Z,0.80
2023-03-26T10:45:12.631Z,5.20
2023-03-26T10:46:31.408Z,3.83
2023-03-26T10:47:51.945Z,3.47
2023-03-26T10:49:03.685Z,2.00
2023-03-26T10:50:23.677Z,2.67
2023-03-26T10:51:32.887Z,1.73
2023-03-26T10:52:55.133Z,3.97
2023-03-26T10:53:56.910Z,2.07
2023-03-26T10:55:03.935Z,3.60
2023-03-26T10:56:14.862Z,5.07
2023-03-26T10:57:29.942Z,5.80
2023-03-26T10:58:48.480Z,1.73
2023-03-26T10:59:52.344Z,4.87
2023-03-26T11:00:54.095Z,2.57
2023-03-26T11:02:21.010Z,1.80
2023-03-26T11:03:54.703Z,1.30
2023-03-26T11:04:59.520Z,3.70
2023-03-26T11:06:07.250Z,5.30
2023-03-26T11:07:22.853Z,3.33
2023-03-26T11:08:31.601Z,3.17
2023-03-26T11:09:44.692Z,6.60
2023-03-26T11:11:03.982Z,2.50
2023-03-26T11:12:27.034Z,2.20
2023-03-26T11:13:46.132Z,1.33
2023-03-26T11:14:58.773Z,2.50
2023-03-26T11:16:03.258Z,3.63
2023-03-26T11:17:04.938Z,2.73
2023-03-26T11:18:21.845Z,2.77
2023-03-26T11:19:35.514Z,3.50
2023-03-26T11:20:44.154Z,2.43
2023-03-26T11:21:45.972Z,2.93
2023-03-26T11:22:47.587Z,3.53
2023-03-26T11:23:49.278Z,2.40
2023-03-26T11:25:34.702Z,1.90
2023-03-26T11:26:53.092Z,3.30
2023-03-26T11:28:05.878Z,3.37
2023-03-26T11:29:31.576Z,2.37
2023-03-26T11:30:46.818Z,2.43
2023-03-26T11:32:07.433Z,2.57
2023-03-26T11:33:11.979Z,8.37
2023-03-26T11:34:16.513Z,2.10
2023-03-26T11:35:18.195Z,7.73
2023-03-26T11:36:42.601Z,6.63
2023-03-26T11:37:46.557Z,6.57
2023-03-26T11:38:50.165Z,4.80
2023-03-26T11:39:55.205Z,2.57
2023-03-26T11:40:59.808Z,4.30
2023-03-26T11:42:06.684Z,5.70
2023-03-26T11:43:10.612Z,3.23
2023-03-26T11:44:21.711Z,1.73
2023-03-26T11:45:25.651Z,2.40
2023-03-26T11:46:27.460Z,4.93
2023-03-26T11:47:34.155Z,4.67
2023-03-26T11:48:37.063Z,3.40
2023-03-26T11:49:39.639Z,4.67
2023-03-26T11:50:46.571Z,10.03
2023-03-26T11:51:48.840Z,2.23
2023-03-26T11:52:50.577Z,4.30
2023-03-26T11:53:52.143Z,3.10
2023-03-26T11:54:54.261Z,5.43
2023-03-26T11:55:59.585Z,4.30
2023-03-26T11:57:07.029Z,3.33
2023-03-26T11:58:21.632Z,2.20
2023-03-26T11:59:23.143Z,3.37
2023-03-26T12:00:27.759Z,3.13
2023-03-26T12:01:40.538Z,3.93
2023-03-26T12:02:42.303Z,1.37
2023-03-26T12:03:56.118Z,2.70
2023-03-26T12:05:15.071Z,1.87
2023-03-26T12:06:25.736Z,2.40
2023-03-26T12:07:33.277Z,6.90
2023-03-26T12:08:38.335Z,6.67
2023-03-26T12:09:49.956Z,6.27
2023-03-26T12:10:59.722Z,4.93
2023-03-26T12:12:03.492Z,4.80
2023-03-26T12:13:35.054Z,4.30
2023-03-26T12:14:42.335Z,4.80
2023-03-26T12:15:44.075Z,9.03
2023-03-26T12:17:00.803Z,3.93
2023-03-26T12:18:18.945Z,7.30
2023-03-26T12:19:22.300Z,5.30
2023-03-26T12:20:24.898Z,2.70
2023-03-26T12:21:27.042Z,2.00
2023-03-26T12:22:37.320Z,11.40
2023-03-26T12:23:45.814Z,10.17
2023-03-26T12:25:00.333Z,5.50
2023-03-26T12:26:21.279Z,2.93
2023-03-26T12:27:28.390Z,4.73
2023-03-26T12:28:33.127Z,3.60
2023-03-26T12:29:34.930Z,3.73
2023-03-26T12:30:38.009Z,2.80
2023-03-26T12:31:45.657Z,3.17
2023-03-26T12:32:47.964Z,3.97
2023-03-26T12:34:06.044Z,3.20
2023-03-26T12:35:14.117Z,6.43
2023-03-26T12:36:26.729Z,2.67
2023-03-26T12:37:33.831Z,11.63
2023-03-26T12:38:37.985Z,2.60
2023-03-26T12:40:06.755Z,5.13
2023-03-26T12:44:42.330Z,5.73
2023-03-26T12:44:47.212Z,2.10
2023-03-26T12:44:51.244Z,5.23
2023-03-26T12:45:44.992Z,4.47
2023-03-26T12:47:58.861Z,2.60
2023-03-26T12:48:35.664Z,4.37
2023-03-26T12:49:38.078Z,4.00
2023-03-26T12:50:39.976Z,2.07
2023-03-26T12:51:42.458Z,4.00
2023-03-26T12:53:02.706Z,3.13
2023-03-26T12:54:24.062Z,2.13
2023-03-26T12:55:45.361Z,5.03
2023-03-26T12:57:11.963Z,2.23
2023-03-26T12:58:24.026Z,3.50
2023-03-26T12:59:39.352Z,3.60
2023-03-26T13:00:54.518Z,7.70
2023-03-26T13:01:59.389Z,2.30
2023-03-26T13:03:19.822Z,2.50
2023-03-26T13:04:24.470Z,3.17
2023-03-26T13:05:28.955Z,3.00
2023-03-26T13:06:31.334Z,4.83
2023-03-26T13:08:12.683Z,4.80
2023-03-26T13:09:17.338Z,1.67
2023-03-26T13:10:41.415Z,6.00
2023-03-26T13:12:06.853Z,2.43
2023-03-26T13:13:08.514Z,3.80
2023-03-26T13:14:16.498Z,3.70
2023-03-26T13:15:22.777Z,5.37
2023-03-26T13:16:44.675Z,2.40
2023-03-26T13:17:53.999Z,2.07
2023-03-26T13:18:55.627Z,4.80
2023-03-26T13:19:58.482Z,4.40
2023-03-26T13:21:03.231Z,5.73
2023-03-26T13:22:05.072Z,2.67
2023-03-26T13:23:18.287Z,2.70
2023-03-26T13:24:34.776Z,3.60
2023-03-26T13:25:40.991Z,2.00
2023-03-26T13:26:45.918Z,6.13
2023-03-26T13:28:02.874Z,2.93
2023-03-26T13:29:04.942Z,2.73
2023-03-26T13:30:19.614Z,2.10
2023-03-26T13:31:36.719Z,4.60
2023-03-26T13:32:57.885Z,1.97
2023-03-26T13:34:07.527Z,2.63
2023-03-26T13:35:15.960Z,2.30
2023-03-26T13:36:25.117Z,2.50
2023-03-26T13:37:46.229Z,1.40
2023-03-26T13:38:58.946Z,5.47
2023-03-26T13:40:22.763Z,3.37
2023-03-26T13:41:32.450Z,7.60
2023-03-26T13:42:37.893Z,5.80
2023-03-26T13:43:52.440Z,3.57
2023-03-26T13:45:04.661Z,6.23
2023-03-26T13:46:16.807Z,2.97
2023-03-26T13:47:24.936Z,2.40
2023-03-26T13:48:29.277Z,6.33
2023-03-26T13:49:37.247Z,2.40
2023-03-26T13:50:41.501Z,3.03
2023-03-26T13:51:44.986Z,3.57
2023-03-26T13:52:52.262Z,3.90
2023-03-26T13:54:14.052Z,5.07
2023-03-26T13:55:27.872Z,6.43
2023-03-26T13:56:34.959Z,9.30
2023-03-26T13:57:40.489Z,4.93
2023-03-26T13:58:58.729Z,2.00
2023-03-26T14:00:16.996Z,2.10
2023-03-26T14:01:34.076Z,2.05
2023-03-26T14:02:38.932Z,4.15
2023-03-26T14:03:52.058Z,3.60
2023-03-26T14:04:56.872Z,1.67
2023-03-26T14:06:03.910Z,0.82
2023-03-26T14:07:12.932Z,6.35
2023-03-26T14:08:25.588Z,2.88
2023-03-26T14:09:34.060Z,5.55
2023-03-26T14:10:38.849Z,2.20
2023-03-26T14:11:46.803Z,6.78
2023-03-26T14:13:08.114Z,2.95
2023-03-26T14:14:13.824Z,5.82
2023-03-26T14:15:23.976Z,4.55
2023-03-26T14:16:29.470Z,0.70
2023-03-26T14:17:38.641Z,2.00
2023-03-26T14:18:46.035Z,6.60
2023-03-26T14:19:54.218Z,4.47
2023-03-26T14:21:14.603Z,2.65
2023-03-26T14:22:34.574Z,3.80
2023-03-26T14:23:48.940Z,7.07
2023-03-26T14:24:51.875Z,5.47
2023-03-26T14:26:00.020Z,4.13
2023-03-26T14:27:24.494Z,3.83
2023-03-26T14:28:28.920Z,2.63
2023-03-26T14:29:56.985Z,1.98
2023-03-26T14:31:19.747Z,3.35
2023-03-26T14:32:40.831Z,2.65
2023-03-26T14:33:51.133Z,3.13
2023-03-26T14:35:10.016Z,3.90
2023-03-26T14:36:21.084Z,1.63
2023-03-26T14:37:27.850Z,1.35
2023-03-26T14:38:53.550Z,2.13